Corinth, Kentucky
Current Conditions -  °F | °C
As of 12:53 PM on Monday 24 Nov 2014 (Local Time) from KFFT Reporting Station
Overcast Overcast  
Wind Chill: 41°   Ceiling: 1800
Heat Index: 48°   Visibility: 10mi
Dew Point: 41°   Wind: 18mph
Humidity: 77%   Direction: 270°W
Pressure: 29.65"   Gusts: 31mph
Location:  38.5°N, 84.56°W
Report Text: KFFT 241753Z AUTO 27016G27KT 10SM BKN018 OVC026 09/05 A2965 RMK AO2 PK WND 25035/1703 SLP039 60001 T00890050 10167 20089 51067
Loading
Personal Weather Stations






























Interactive Weather Map New forecast layout! Learn more

10-Day Weather Forecast

Advertisements
Track Severe Weather on mobile